Terminal Aerodrome Forecast
Issued by NWS Atlanta, GA

Home | Current Version | Previous Version | Text Only | Print | Product List | Glossary On
Versions: 1 2 3 4 5 6 7 8 9 10 11 12 13 14 15 16 17 18 19 20 21 22 23 24 25 26 27 28 29 30 31
000
FTAK31 PAJN 220100 AAA
TAFAHN
TAF AMD
PAHN 220104Z 2201/2224 29005KT 5SM -SN BR SCT008 OVC025
      TEMPO 2201/2205 00000KT 2SM BR BKN008 OVC015
     FM220600 VRB03KT 6SM -SNRA BR SCT015 OVC020
     FM221600 32008KT P6SM VCSH OVC030
      AMD LTD TO CLD VIS AND WIND=

USA.gov is the U.S. government's official web portal to all federal, state and local government web resources and services.